Time;durP1;ratioP1;P1;durP2;ratioP2;P2;SDS_P1;SDS_P2;PMS_P1;PMS_P2;Temp;Humidity;BMP_temperature;BMP_pressure;BME280_temperature;BME280_humidity;BME280_pressure;Samples;Min_cycle;Max_cycle;Signal;HPM_P1;HPM_P2
2023/06/25 00:00:54;;;;;;;;;4.25;4.25;;;;;26.54;40.44;101348.00;4963834;28;45235;-40
2023/06/25 00:03:19;;;;;;;;;4.75;4.75;;;;;26.53;40.26;101350.78;4964107;28;45501;-42
2023/06/25 00:05:45;;;;;;;;;3.25;3.25;;;;;26.53;40.33;101356.94;4963729;28;46289;-41
2023/06/25 00:08:10;;;;;;;;;6.75;5.00;;;;;26.53;40.16;101358.75;4963688;28;45444;-42
2023/06/25 00:10:36;;;;;;;;;5.50;5.00;;;;;26.51;40.38;101353.53;4964008;28;45273;-43
2023/06/25 00:13:01;;;;;;;;;3.75;3.75;;;;;26.51;40.32;101344.72;4963999;28;45473;-43
2023/06/25 00:15:27;;;;;;;;;6.00;5.00;;;;;26.51;40.41;101344.72;4963592;28;45524;-40
2023/06/25 00:17:53;;;;;;;;;5.75;3.75;;;;;26.50;40.62;101341.22;4963880;28;45637;-40
2023/06/25 00:20:18;;;;;;;;;4.25;3.00;;;;;26.49;40.22;101334.22;4962242;28;45403;-41
2023/06/25 00:22:44;;;;;;;;;6.00;3.75;;;;;26.48;40.15;101332.50;4962727;28;45722;-43
2023/06/25 00:25:14;;;;;;;;;6.00;4.50;;;;;26.50;40.27;101333.25;4962191;28;47789;-42
2023/06/25 00:27:40;;;;;;;;;5.50;4.00;;;;;26.47;40.09;101320.19;4963636;28;45692;-43
2023/06/25 00:30:08;;;;;;;;;3.00;3.00;;;;;26.50;40.39;101330.59;4963771;28;45640;-40
2023/06/25 00:32:34;;;;;;;;;6.50;5.25;;;;;26.47;40.21;101322.84;4963690;28;45316;-41
2023/06/25 00:35:01;;;;;;;;;5.50;4.50;;;;;26.50;40.41;101321.75;4963475;28;45394;-46
2023/06/25 00:37:27;;;;;;;;;7.25;4.00;;;;;26.50;40.32;101325.28;4963409;28;45627;-45
2023/06/25 00:39:52;;;;;;;;;4.00;4.00;;;;;26.50;40.23;101322.63;4963806;28;45270;-42
2023/06/25 00:42:17;;;;;;;;;4.75;4.00;;;;;26.50;40.29;101319.09;4963593;28;45502;-42
2023/06/25 00:44:43;;;;;;;;;3.00;3.00;;;;;26.47;40.37;101308.69;4962759;28;56246;-43
2023/06/25 00:47:16;;;;;;;;;5.00;5.00;;;;;26.49;40.54;101312.94;4961981;28;45304;-41
2023/06/25 00:49:43;;;;;;;;;5.75;4.25;;;;;26.50;40.25;101314.66;4963169;28;45946;-40
2023/06/25 00:52:11;;;;;;;;;2.00;1.25;;;;;26.49;40.36;101307.63;4963552;28;45370;-43
2023/06/25 00:54:41;;;;;;;;;4.00;4.00;;;;;26.50;40.52;101319.97;4962008;28;46881;-40
2023/06/25 00:57:07;;;;;;;;;5.25;4.25;;;;;26.50;40.35;101313.78;4963144;28;45848;-41
2023/06/25 00:59:35;;;;;;;;;4.75;4.00;;;;;26.48;40.23;101311.25;4963279;28;45331;-43
2023/06/25 01:02:11;;;;;;;;;5.00;5.00;;;;;26.48;40.18;101311.25;4963340;28;45412;-42
2023/06/25 01:04:42;;;;;;;;;5.25;4.25;;;;;26.47;40.18;101304.25;4961535;28;48164;-41
2023/06/25 01:07:16;;;;;;;;;3.75;3.75;;;;;26.46;40.17;101297.22;4963142;28;45216;-42
2023/06/25 01:09:45;;;;;;;;;4.00;4.00;;;;;26.46;40.23;101301.69;4962520;28;45258;-40
2023/06/25 01:12:10;;;;;;;;;5.00;4.00;;;;;26.45;39.98;101294.69;4959714;28;45394;-40
2023/06/25 01:14:35;;;;;;;;;5.00;5.00;;;;;26.45;40.45;101284.06;4959658;28;46427;-41
2023/06/25 01:17:01;;;;;;;;;4.00;4.00;;;;;26.45;40.42;101281.41;4959527;28;54276;-45
2023/06/25 01:19:29;;;;;;;;;6.75;5.50;;;;;26.45;40.11;101282.22;4960106;28;45478;-44
2023/06/25 01:21:59;;;;;;;;;5.25;3.25;;;;;26.46;40.22;101283.94;4960197;28;45428;-43
2023/06/25 01:24:26;;;;;;;;;7.00;4.00;;;;;26.45;40.35;101284.88;4959974;28;46501;-41
2023/06/25 01:26:54;;;;;;;;;4.00;4.00;;;;;26.44;40.56;101293.81;4959559;28;45561;-41
2023/06/25 01:29:20;;;;;;;;;6.25;3.75;;;;;26.45;40.44;101290.22;4958417;28;45239;-42
2023/06/25 01:31:45;;;;;;;;;3.00;3.00;;;;;26.44;40.37;101285.84;4959741;28;45380;-42
2023/06/25 01:34:10;;;;;;;;;2.25;2.00;;;;;26.44;40.48;101283.19;4959351;28;48592;-43
2023/06/25 01:36:39;;;;;;;;;4.00;4.00;;;;;26.44;40.39;101290.34;4959376;28;45413;-44
2023/06/25 01:39:06;;;;;;;;;5.00;4.00;;;;;26.42;40.41;101282.44;4959482;28;45329;-41
2023/06/25 01:41:32;;;;;;;;;4.75;4.75;;;;;26.43;40.36;101284.16;4959601;28;45661;-41
2023/06/25 01:43:57;;;;;;;;;7.00;5.00;;;;;26.43;40.30;101276.19;4959496;28;45933;-39
2023/06/25 01:46:22;;;;;;;;;4.00;3.00;;;;;26.43;40.01;101281.50;4959300;28;45347;-42
2023/06/25 01:48:48;;;;;;;;;3.00;3.00;;;;;26.42;40.17;101271.81;4958960;28;51979;-43
2023/06/25 01:51:13;;;;;;;;;6.00;3.25;;;;;26.43;40.13;101270.84;4959472;28;45681;-41
2023/06/25 01:53:38;;;;;;;;;4.50;4.00;;;;;26.43;40.55;101272.69;4959082;28;47097;-42
2023/06/25 01:56:04;;;;;;;;;4.00;4.00;;;;;26.38;40.53;101260.56;4958638;28;57591;-40
2023/06/25 01:58:29;;;;;;;;;4.00;3.75;;;;;26.43;40.31;101265.53;4959635;28;45360;-41
2023/06/25 02:00:54;;;;;;;;;3.25;3.00;;;;;26.42;40.39;101257.69;4959278;28;45435;-40
2023/06/25 02:03:20;;;;;;;;;5.00;4.75;;;;;26.39;40.25;101253.47;4958785;28;46146;-40
2023/06/25 02:05:45;;;;;;;;;4.00;4.00;;;;;26.42;40.11;101253.22;4958946;28;45423;-41
2023/06/25 02:08:10;;;;;;;;;7.25;5.00;;;;;26.39;40.50;101253.47;4959010;28;45308;-41
2023/06/25 02:10:36;;;;;;;;;4.00;3.50;;;;;26.43;40.66;101262.06;4959371;28;45555;-42
2023/06/25 02:13:01;;;;;;;;;3.00;3.00;;;;;26.42;40.42;101257.69;4958456;28;65249;-43
2023/06/25 02:15:26;;;;;;;;;6.25;4.75;;;;;26.41;40.33;101251.50;4958056;28;45208;-42
2023/06/25 02:17:52;;;;;;;;;6.00;4.50;;;;;26.41;40.02;101248.84;4970270;28;45298;-42
2023/06/25 02:20:17;;;;;;;;;5.75;4.50;;;;;26.42;40.19;101247.06;4978722;28;45313;-42
2023/06/25 02:22:42;;;;;;;;;3.00;3.00;;;;;26.42;40.06;101241.75;4977036;28;45261;-42
2023/06/25 02:25:08;;;;;;;;;7.50;4.25;;;;;26.40;39.97;101239.22;4978159;28;46402;-43
2023/06/25 02:27:33;;;;;;;;;5.50;4.00;;;;;26.36;40.03;101233.25;4978469;28;45463;-43
2023/06/25 02:29:58;;;;;;;;;3.25;3.25;;;;;26.39;39.84;101242.84;4978891;28;45212;-41
2023/06/25 02:32:24;;;;;;;;;3.50;3.50;;;;;26.38;39.71;101236.66;4977498;28;64382;-40
2023/06/25 02:34:49;;;;;;;;;5.00;4.00;;;;;26.37;39.85;101234.97;4978099;28;45249;-40
2023/06/25 02:37:15;;;;;;;;;4.50;4.00;;;;;26.36;40.10;101227.09;4978052;28;45233;-41
2023/06/25 02:39:41;;;;;;;;;4.00;3.00;;;;;26.37;39.91;101226.16;4978249;28;45554;-44
2023/06/25 02:42:06;;;;;;;;;5.50;3.75;;;;;26.35;39.89;101225.41;4977862;28;46302;-42
2023/06/25 02:44:32;;;;;;;;;3.25;3.25;;;;;26.34;39.94;101210.44;4978372;28;45418;-42
2023/06/25 02:46:57;;;;;;;;;3.00;3.00;;;;;26.35;39.60;101220.09;4976698;28;45544;-41
2023/06/25 02:49:22;;;;;;;;;4.00;4.00;;;;;26.33;39.93;101214.91;4977777;28;50584;-41
2023/06/25 02:51:48;;;;;;;;;4.00;4.00;;;;;26.34;39.33;101213.94;4977952;28;46599;-40
2023/06/25 02:54:13;;;;;;;;;3.75;3.50;;;;;26.35;39.88;101212.13;4977746;28;45494;-41
2023/06/25 02:56:38;;;;;;;;;4.75;3.50;;;;;26.30;39.76;101207.16;4976424;28;45370;-42
2023/06/25 02:59:04;;;;;;;;;6.75;4.00;;;;;26.33;39.77;101222.00;4978009;28;45732;-43
2023/06/25 03:01:29;;;;;;;;;5.00;4.50;;;;;26.32;40.00;101225.63;4977715;28;45427;-45
2023/06/25 03:03:54;;;;;;;;;3.75;3.00;;;;;26.33;39.83;101224.66;4977491;28;45419;-43
2023/06/25 03:06:20;;;;;;;;;4.75;4.75;;;;;26.30;39.93;101219.56;4977789;28;45306;-45
2023/06/25 03:08:45;;;;;;;;;5.25;4.25;;;;;26.33;39.99;101219.34;4977884;28;45292;-42
2023/06/25 03:11:10;;;;;;;;;4.00;4.00;;;;;26.33;39.47;101222.00;4977435;28;46101;-43
2023/06/25 03:13:36;;;;;;;;;3.75;3.75;;;;;26.30;40.13;101216.91;4977470;28;45343;-40
2023/06/25 03:16:01;;;;;;;;;5.00;3.25;;;;;26.32;40.11;101225.63;4977294;28;57637;-42
2023/06/25 03:18:26;;;;;;;;;5.00;4.00;;;;;26.33;39.78;101225.53;4977661;28;45290;-40
2023/06/25 03:20:52;;;;;;;;;4.50;4.50;;;;;26.31;39.73;101223.94;4976591;28;66100;-42
2023/06/25 03:23:17;;;;;;;;;2.25;1.50;;;;;26.31;39.68;101215.97;4977298;28;45227;-42
2023/06/25 03:25:42;;;;;;;;;4.00;4.00;;;;;26.32;39.48;101209.69;4976139;28;45272;-40
2023/06/25 03:28:08;;;;;;;;;5.50;4.00;;;;;26.28;39.61;101203.75;4972741;28;53286;-41
2023/06/25 03:30:33;;;;;;;;;5.00;4.00;;;;;26.30;40.13;101209.81;4957761;28;53896;-41
2023/06/25 03:32:58;;;;;;;;;4.00;4.00;;;;;26.26;39.41;101199.53;4957137;28;49266;-42
2023/06/25 03:35:23;;;;;;;;;3.25;3.00;;;;;26.23;39.60;101204.09;4957351;28;51266;-40
2023/06/25 03:37:49;;;;;;;;;6.00;4.50;;;;;26.22;39.73;101206.88;4957515;28;46904;-42
2023/06/25 03:40:14;;;;;;;;;4.75;4.25;;;;;26.19;39.81;101205.28;4957491;28;47049;-43
2023/06/25 03:42:39;;;;;;;;;4.25;3.00;;;;;26.15;39.82;101208.28;4957639;28;45300;-44
2023/06/25 03:45:05;;;;;;;;;4.25;4.25;;;;;26.10;40.08;101200.66;4957992;28;45443;-40
2023/06/25 03:47:31;;;;;;;;;5.00;5.00;;;;;26.04;39.80;101201.09;4957862;28;45222;-41
2023/06/25 03:49:56;;;;;;;;;4.00;4.00;;;;;26.00;40.27;101204.91;4957560;28;45371;-41
2023/06/25 03:52:21;;;;;;;;;3.00;3.00;;;;;25.93;39.65;101201.84;4957452;28;45401;-44
2023/06/25 03:54:47;;;;;;;;;4.00;4.00;;;;;25.88;40.11;101207.50;4957672;28;45464;-41
2023/06/25 03:57:12;;;;;;;;;3.50;3.50;;;;;25.82;40.05;101202.66;4956534;28;45479;-43
2023/06/25 03:59:37;;;;;;;;;4.25;3.25;;;;;25.78;39.86;101207.34;4957170;28;46462;-41
2023/06/25 04:02:04;;;;;;;;;3.00;3.00;;;;;25.77;40.18;101204.78;4956559;28;45399;-43
2023/06/25 04:04:30;;;;;;;;;4.50;4.00;;;;;25.73;40.25;101200.66;4956151;28;45511;-43
2023/06/25 04:06:55;;;;;;;;;5.50;3.25;;;;;25.69;40.54;101201.84;4957510;28;45408;-44
2023/06/25 04:09:20;;;;;;;;;4.00;4.00;;;;;25.68;40.67;101205.44;4957301;28;45384;-42
2023/06/25 04:11:46;;;;;;;;;5.00;4.50;;;;;25.66;41.10;101207.34;4957233;28;45329;-41
2023/06/25 04:14:11;;;;;;;;;6.00;4.00;;;;;25.63;40.82;101201.31;4957475;28;45406;-41
2023/06/25 04:16:36;;;;;;;;;5.00;4.00;;;;;25.63;40.58;101198.66;4957872;28;45562;-41
2023/06/25 04:19:02;;;;;;;;;0.00;0.00;;;;;25.63;40.94;101198.66;4957153;28;45564;-41
2023/06/25 04:21:27;;;;;;;;;4.00;4.00;;;;;25.63;41.30;101195.16;4955666;28;45405;-40
2023/06/25 04:23:52;;;;;;;;;6.00;4.25;;;;;25.62;41.34;101196.97;4957220;28;45241;-41
2023/06/25 04:26:17;;;;;;;;;5.25;4.75;;;;;25.62;41.02;101193.47;4957330;28;45211;-42
2023/06/25 04:28:43;;;;;;;;;5.50;5.25;;;;;25.61;41.20;101195.28;4957018;28;45514;-42
2023/06/25 04:31:08;;;;;;;;;5.25;5.25;;;;;25.61;40.87;101195.28;4957073;28;51600;-39
2023/06/25 04:33:40;;;;;;;;;3.25;3.25;;;;;25.63;41.42;101198.66;4957018;28;45315;-41
2023/06/25 04:36:06;;;;;;;;;7.00;6.00;;;;;25.63;40.96;101193.34;4957439;28;45406;-41
2023/06/25 04:38:31;;;;;;;;;5.50;5.50;;;;;25.62;41.01;101189.00;4956978;28;46340;-44
2023/06/25 04:40:56;;;;;;;;;5.00;3.75;;;;;25.66;41.15;101199.41;4956651;28;49774;-42
2023/06/25 04:43:21;;;;;;;;;6.00;4.25;;;;;25.65;41.11;101203.00;4956567;28;50961;-44
2023/06/25 04:45:47;;;;;;;;;4.75;4.50;;;;;25.60;41.53;101201.53;4957905;28;45575;-42
2023/06/25 04:48:12;;;;;;;;;4.25;4.25;;;;;25.56;41.83;101202.72;4977695;28;52159;-43
2023/06/25 04:50:37;;;;;;;;;6.00;5.75;;;;;25.57;41.43;101209.72;4979613;28;54786;-42
2023/06/25 04:53:03;;;;;;;;;6.00;5.00;;;;;25.56;41.55;101200.06;4979569;28;45484;-40
2023/06/25 04:55:28;;;;;;;;;4.75;4.75;;;;;25.54;41.58;101199.31;4979539;28;45253;-42
2023/06/25 04:57:53;;;;;;;;;8.00;6.00;;;;;25.53;41.98;101200.25;4979601;28;45588;-42
2023/06/25 05:00:19;;;;;;;;;4.50;4.50;;;;;25.52;42.01;101201.22;4978123;28;46335;-43
2023/06/25 05:02:44;;;;;;;;;6.00;4.25;;;;;25.46;41.85;101191.06;4979553;28;45293;-45
2023/06/25 05:05:09;;;;;;;;;7.00;7.00;;;;;25.49;41.96;101201.47;4980012;28;45210;-42
2023/06/25 05:07:35;;;;;;;;;5.50;4.75;;;;;25.48;41.68;101202.41;4979178;28;45317;-42
2023/06/25 05:10:00;;;;;;;;;5.00;5.00;;;;;25.48;42.12;101205.06;4979286;28;45239;-42
2023/06/25 05:12:25;;;;;;;;;5.25;5.25;;;;;25.46;42.29;101205.19;4979435;28;45420;-43
2023/06/25 05:14:51;;;;;;;;;8.25;6.00;;;;;25.46;42.28;101201.66;4979590;28;45234;-43
2023/06/25 05:17:16;;;;;;;;;7.67;5.33;;;;;25.45;42.03;101197.31;4978542;28;64614;-41
2023/06/25 05:19:42;;;;;;;;;7.00;6.00;;;;;25.45;42.30;101205.28;4979417;28;45402;-41
2023/06/25 05:22:07;;;;;;;;;7.00;5.75;;;;;25.44;42.37;101214.19;4979517;28;45859;-41
2023/06/25 05:24:32;;;;;;;;;6.25;6.00;;;;;25.41;41.96;101209.13;4979464;28;45380;-43
2023/06/25 05:26:58;;;;;;;;;4.00;4.00;;;;;25.44;42.23;101214.19;4979012;28;45988;-42
2023/06/25 05:29:23;;;;;;;;;6.00;4.25;;;;;25.43;42.36;101205.41;4979112;28;45284;-42
2023/06/25 05:31:48;;;;;;;;;7.00;5.50;;;;;25.42;41.90;101210.78;4979194;28;45350;-45
2023/06/25 05:34:14;;;;;;;;;9.50;6.00;;;;;25.42;42.13;101205.47;4979264;28;45555;-44
2023/06/25 05:36:39;;;;;;;;;5.50;5.00;;;;;25.44;41.89;101203.56;4979206;28;46174;-42
2023/06/25 05:39:04;;;;;;;;;5.25;5.25;;;;;25.41;42.35;101201.16;4979056;28;45328;-42
2023/06/25 05:41:30;;;;;;;;;8.00;6.00;;;;;25.44;42.42;101204.44;4978973;28;45443;-40
2023/06/25 05:43:55;;;;;;;;;10.00;7.25;;;;;25.43;42.24;101196.56;4979144;28;45578;-41
2023/06/25 05:46:21;;;;;;;;;7.25;6.50;;;;;25.42;42.51;101202.84;4978738;28;45380;-42
2023/06/25 05:48:47;;;;;;;;;6.50;6.00;;;;;25.44;42.17;101208.88;4977420;28;45350;-42
2023/06/25 05:51:12;;;;;;;;;6.00;6.00;;;;;25.43;41.78;101204.53;4979009;28;45297;-42
2023/06/25 05:53:43;;;;;;;;;6.00;6.00;;;;;25.44;42.15;101207.09;4979036;28;45645;-42
2023/06/25 05:56:09;;;;;;;;;7.75;7.00;;;;;25.45;42.22;101205.28;4978324;28;45362;-41
2023/06/25 05:58:35;;;;;;;;;8.00;5.00;;;;;25.43;41.86;101201.88;4978756;28;45312;-42
2023/06/25 06:01:00;;;;;;;;;7.75;6.75;;;;;25.44;42.11;101203.56;4978598;28;46729;-42
2023/06/25 06:03:26;;;;;;;;;6.75;6.25;;;;;25.48;41.66;101207.72;4978682;28;45650;-43
2023/06/25 06:05:52;;;;;;;;;8.00;6.75;;;;;25.49;42.08;101212.06;4977928;28;60952;-41
2023/06/25 06:08:18;;;;;;;;;4.25;4.25;;;;;25.51;42.29;101210.16;4978524;28;45840;-46
2023/06/25 06:10:43;;;;;;;;;7.75;6.25;;;;;25.49;42.14;101209.41;4979029;28;45330;-42
2023/06/25 06:13:08;;;;;;;;;7.00;6.25;;;;;25.49;41.84;101209.41;4978739;28;45531;-42
2023/06/25 06:15:34;;;;;;;;;8.25;6.25;;;;;25.54;41.71;101215.22;4976988;28;47725;-40
2023/06/25 06:17:59;;;;;;;;;7.00;7.00;;;;;25.53;41.79;101213.53;4978415;28;45414;-41
2023/06/25 06:20:24;;;;;;;;;5.25;5.00;;;;;25.57;41.78;101208.88;4977788;28;57979;-43
2023/06/25 06:22:49;;;;;;;;;9.00;7.25;;;;;25.60;42.15;101204.19;4978686;28;45271;-40
2023/06/25 06:25:15;;;;;;;;;7.50;7.00;;;;;25.63;41.70;101193.34;4978104;28;54918;-41
2023/06/25 06:27:40;;;;;;;;;6.50;6.00;;;;;25.69;41.99;101194.69;4978197;28;45407;-44
2023/06/25 06:30:06;;;;;;;;;6.50;6.00;;;;;25.76;41.29;101203.94;4977046;28;45286;-40
2023/06/25 06:32:31;;;;;;;;;8.50;7.50;;;;;25.80;41.90;101198.41;4977900;28;45404;-43
2023/06/25 06:34:57;;;;;;;;;8.00;7.00;;;;;25.83;41.24;101193.72;4955516;28;46142;-41
2023/06/25 06:37:22;;;;;;;;;9.50;7.00;;;;;25.85;41.62;101186.47;4957766;28;60933;-43
2023/06/25 06:39:47;;;;;;;;;6.75;6.75;;;;;25.84;41.22;101195.44;4971373;28;45416;-42
2023/06/25 06:42:13;;;;;;;;;8.75;7.25;;;;;25.89;41.21;101193.28;4959520;28;48625;-40
2023/06/25 06:44:38;;;;;;;;;6.25;6.00;;;;;25.90;41.21;101186.16;4956401;28;55558;-40
2023/06/25 06:47:03;;;;;;;;;8.75;6.00;;;;;25.92;41.41;101187.75;4957609;28;56518;-42
2023/06/25 06:49:29;;;;;;;;;8.25;7.25;;;;;25.93;40.74;101184.13;4958295;28;45325;-41
2023/06/25 06:51:54;;;;;;;;;9.25;6.25;;;;;25.92;40.56;101182.44;4957017;28;45307;-40
2023/06/25 06:54:19;;;;;;;;;8.25;7.00;;;;;25.92;40.61;101181.56;4956325;28;57712;-40
2023/06/25 06:56:45;;;;;;;;;12.00;8.00;;;;;25.99;40.67;101187.28;4957952;28;45486;-41
2023/06/25 06:59:10;;;;;;;;;6.75;6.00;;;;;26.00;41.06;101183.66;4958118;28;45398;-42
2023/06/25 07:01:35;;;;;;;;;8.75;7.25;;;;;26.02;40.52;101187.06;4957775;28;45599;-42
2023/06/25 07:04:01;;;;;;;;;8.50;6.50;;;;;26.03;40.68;101183.44;4957755;28;46103;-40
2023/06/25 07:06:26;;;;;;;;;8.25;7.00;;;;;26.04;40.89;101187.81;4957386;28;45475;-41
2023/06/25 07:08:51;;;;;;;;;7.75;7.00;;;;;26.05;40.88;101190.34;4957439;28;45396;-41
2023/06/25 07:11:18;;;;;;;;;9.00;7.00;;;;;26.05;40.88;101176.22;4958216;28;45593;-41
2023/06/25 07:13:44;;;;;;;;;8.75;7.75;;;;;26.07;40.61;101180.44;4958180;28;46111;-41
2023/06/25 07:16:10;;;;;;;;;7.00;7.00;;;;;26.10;40.81;101184.72;4957420;28;45763;-43
2023/06/25 07:18:35;;;;;;;;;8.00;8.00;;;;;26.10;40.60;101184.72;4957931;28;45325;-42
2023/06/25 07:21:00;;;;;;;;;6.25;6.00;;;;;26.11;40.95;101175.78;4957667;28;45262;-42
2023/06/25 07:23:25;;;;;;;;;9.50;8.00;;;;;26.12;40.78;101177.47;4964191;28;61526;-42
2023/06/25 07:25:51;;;;;;;;;8.00;6.75;;;;;26.12;40.93;101176.66;4960854;28;45391;-40
2023/06/25 07:28:16;;;;;;;;;8.75;8.00;;;;;26.10;40.79;101168.78;4958134;28;45242;-39
2023/06/25 07:30:41;;;;;;;;;8.25;8.00;;;;;26.16;40.66;101184.28;4957702;28;45581;-42
2023/06/25 07:33:07;;;;;;;;;8.00;6.00;;;;;26.17;40.43;101178.00;4957556;28;46029;-41
2023/06/25 07:35:32;;;;;;;;;6.50;6.25;;;;;26.18;40.76;101187.63;4956451;28;60976;-41
2023/06/25 07:37:57;;;;;;;;;6.75;6.00;;;;;26.17;40.79;101171.81;4957270;28;54524;-42
2023/06/25 07:40:23;;;;;;;;;8.00;8.00;;;;;26.21;40.48;101184.75;4957559;28;45452;-41
2023/06/25 07:42:48;;;;;;;;;6.75;6.75;;;;;26.20;40.89;101172.44;4957414;28;46440;-42
2023/06/25 07:45:13;;;;;;;;;10.50;7.00;;;;;26.22;40.94;101175.84;4957432;28;45364;-40
2023/06/25 07:47:39;;;;;;;;;7.00;7.00;;;;;26.23;40.44;101174.88;4938043;28;45440;-41
2023/06/25 07:50:05;;;;;;;;;7.75;7.75;;;;;26.22;40.55;101170.53;4938324;28;45432;-40
2023/06/25 07:52:30;;;;;;;;;8.25;7.25;;;;;26.27;40.52;101172.00;4953955;28;46468;-41
2023/06/25 07:54:56;;;;;;;;;8.50;8.50;;;;;26.24;40.56;101163.28;4957132;28;45418;-42
2023/06/25 07:57:21;;;;;;;;;7.75;6.00;;;;;26.29;40.60;101165.59;4956968;28;45561;-40
2023/06/25 07:59:47;;;;;;;;;10.00;8.75;;;;;26.26;40.82;101165.81;4957604;28;45566;-42
2023/06/25 08:02:12;;;;;;;;;6.25;5.25;;;;;26.32;40.90;101167.16;4956766;28;46542;-43
2023/06/25 08:04:38;;;;;;;;;10.75;9.00;;;;;26.32;40.47;101172.50;4955410;28;45369;-42
2023/06/25 08:07:03;;;;;;;;;10.75;8.75;;;;;26.33;40.61;101164.41;4956569;28;45299;-43
2023/06/25 08:09:29;;;;;;;;;8.75;7.75;;;;;26.34;40.85;101160.81;4957421;28;45203;-42
2023/06/25 08:11:54;;;;;;;;;9.50;8.50;;;;;26.35;40.32;101161.63;4956772;28;46243;-42
2023/06/25 08:14:19;;;;;;;;;8.50;8.50;;;;;26.34;40.75;101159.94;4957324;28;45353;-40
2023/06/25 08:16:45;;;;;;;;;8.75;8.75;;;;;26.32;40.53;101146.78;4956669;28;45307;-43
2023/06/25 08:19:10;;;;;;;;;7.75;7.25;;;;;26.38;40.53;101161.41;4957485;28;45230;-40
2023/06/25 08:21:35;;;;;;;;;9.25;9.25;;;;;26.39;40.49;101155.13;4958859;28;47503;-40
2023/06/25 08:24:01;;;;;;;;;9.25;7.50;;;;;26.39;40.66;101152.47;4960651;28;45341;-41
2023/06/25 08:26:26;;;;;;;;;9.00;7.75;;;;;26.39;40.54;101155.13;4960188;28;45720;-43
2023/06/25 08:28:52;;;;;;;;;10.00;8.25;;;;;26.41;40.46;101141.72;4960523;28;45403;-43
2023/06/25 08:31:17;;;;;;;;;8.75;7.00;;;;;26.38;40.25;101141.00;4960248;28;47068;-41
2023/06/25 08:33:43;;;;;;;;;10.00;8.25;;;;;26.41;40.56;101142.56;4960197;28;45396;-40
2023/06/25 08:36:08;;;;;;;;;9.75;8.25;;;;;26.43;40.48;101143.28;4959979;28;45344;-42
2023/06/25 08:38:35;;;;;;;;;10.75;8.00;;;;;26.41;40.80;101144.38;4960428;28;45658;-41
2023/06/25 08:41:01;;;;;;;;;9.50;9.50;;;;;26.44;40.56;101145.00;4959779;28;46560;-40
2023/06/25 08:43:27;;;;;;;;;10.50;9.00;;;;;26.45;40.19;101149.34;4958752;28;45455;-40
2023/06/25 08:45:52;;;;;;;;;9.75;9.75;;;;;26.47;40.31;101138.59;4960313;28;45422;-41
2023/06/25 08:48:17;;;;;;;;;9.00;8.25;;;;;26.47;40.12;101143.91;4960393;28;45539;-41
2023/06/25 08:50:48;;;;;;;;;10.00;9.50;;;;;26.43;40.00;101135.31;4959892;28;46662;-44
2023/06/25 08:53:14;;;;;;;;;10.50;9.00;;;;;26.45;40.01;101130.75;4959874;28;45471;-45
2023/06/25 08:55:41;;;;;;;;;11.75;10.25;;;;;26.45;40.28;101128.09;4959786;28;49114;-46
2023/06/25 08:58:06;;;;;;;;;10.75;10.25;;;;;26.47;40.27;101128.81;4959973;28;45465;-42
2023/06/25 09:00:31;;;;;;;;;10.00;9.25;;;;;26.45;40.21;101130.75;4959889;28;46200;-42
2023/06/25 09:02:57;;;;;;;;;10.25;9.00;;;;;26.45;40.15;101130.75;4959396;28;45327;-42
2023/06/25 09:05:25;;;;;;;;;10.50;10.00;;;;;26.48;39.42;101125.19;4958917;28;45371;-40
2023/06/25 09:07:50;;;;;;;;;10.75;6.50;;;;;26.49;39.52;101126.91;4960047;28;45222;-41
2023/06/25 09:10:16;;;;;;;;;11.00;9.75;;;;;26.49;39.38;101126.91;4959651;28;45379;-43
2023/06/25 09:12:45;;;;;;;;;11.25;10.00;;;;;26.52;39.76;101125.81;4959484;28;45424;-43
2023/06/25 09:15:11;;;;;;;;;10.25;7.75;;;;;26.53;39.82;101131.00;4959956;28;45523;-46
2023/06/25 09:17:36;;;;;;;;;11.25;9.50;;;;;26.54;39.33;101123.88;4959490;28;45363;-42
2023/06/25 09:20:04;;;;;;;;;11.00;10.00;;;;;26.55;39.56;101115.78;4959356;28;45344;-42
2023/06/25 09:22:30;;;;;;;;;11.75;10.00;;;;;26.58;39.24;101127.16;4959289;28;45754;-41
2023/06/25 09:24:55;;;;;;;;;11.25;10.50;;;;;26.59;39.06;101120.88;4959742;28;45342;-43
2023/06/25 09:27:21;;;;;;;;;12.25;9.00;;;;;26.59;39.12;101115.56;4959778;28;45566;-41
2023/06/25 09:29:46;;;;;;;;;8.50;8.50;;;;;26.60;38.93;101119.91;4959501;28;45245;-41
2023/06/25 09:32:12;;;;;;;;;10.50;10.50;;;;;26.61;38.97;101118.94;4958557;28;45237;-41
2023/06/25 09:34:40;;;;;;;;;12.50;9.75;;;;;26.62;39.02;101115.31;4968019;28;45447;-42
2023/06/25 09:37:05;;;;;;;;;8.50;8.50;;;;;26.62;39.22;101112.66;4971407;28;45498;-40
2023/06/25 09:39:31;;;;;;;;;10.00;9.25;;;;;26.62;39.03;101107.34;4959098;28;46258;-43
2023/06/25 09:41:58;;;;;;;;;11.25;10.00;;;;;26.63;38.63;101103.69;4959184;28;45488;-42
2023/06/25 09:44:23;;;;;;;;;10.25;9.50;;;;;26.64;38.66;101102.72;4959851;28;45533;-42
2023/06/25 09:46:53;;;;;;;;;10.00;10.00;;;;;26.61;38.56;101098.50;4960037;28;45497;-42
2023/06/25 09:49:19;;;;;;;;;9.50;8.25;;;;;26.66;38.43;101103.47;4959076;28;45507;-41
2023/06/25 09:51:58;;;;;;;;;9.00;9.00;;;;;26.67;38.35;101097.19;4958008;28;45381;-42
2023/06/25 09:54:25;;;;;;;;;11.50;10.50;;;;;26.68;38.46;101094.41;4959683;28;45364;-40
2023/06/25 09:56:53;;;;;;;;;9.00;8.50;;;;;26.69;38.33;101100.59;4959840;28;45353;-43
2023/06/25 09:59:18;;;;;;;;;9.00;9.00;;;;;26.69;38.20;101095.25;4958894;28;45667;-40
2023/06/25 10:01:44;;;;;;;;;9.50;9.25;;;;;26.66;37.81;101091.03;4958255;28;65913;-41
2023/06/25 10:04:09;;;;;;;;;10.50;10.50;;;;;26.65;38.04;101078.72;4958873;28;45490;-41
2023/06/25 10:06:36;;;;;;;;;9.50;9.50;;;;;26.69;38.12;101084.63;4959375;28;45827;-42
2023/06/25 10:09:03;;;;;;;;;9.25;9.25;;;;;26.69;38.17;101074.00;4958619;28;46293;-42
2023/06/25 10:11:29;;;;;;;;;9.00;8.00;;;;;26.70;37.88;101081.00;4958189;28;45345;-43
2023/06/25 10:13:56;;;;;;;;;9.75;7.50;;;;;26.71;37.91;101072.06;4958516;28;45380;-41
2023/06/25 10:16:22;;;;;;;;;10.50;9.00;;;;;26.69;38.08;101063.34;4958619;28;45679;-42
2023/06/25 10:18:52;;;;;;;;;9.75;9.00;;;;;26.70;37.63;101063.22;4958075;28;46513;-42
2023/06/25 10:21:22;;;;;;;;;12.50;11.25;;;;;26.71;37.62;101066.75;4957958;28;45353;-42
2023/06/25 10:24:00;;;;;;;;;12.00;9.75;;;;;26.69;37.91;101061.53;4954545;28;45422;-41
2023/06/25 10:26:31;;;;;;;;;11.00;9.25;;;;;26.72;37.38;101067.56;4958347;28;45663;-44
2023/06/25 10:29:00;;;;;;;;;8.25;8.00;;;;;26.67;37.47;101068.81;4932759;28;47101;-44
2023/06/25 10:31:26;;;;;;;;;10.50;10.25;;;;;26.72;37.82;101071.09;4956749;28;45363;-39
2023/06/25 10:34:02;;;;;;;;;11.00;11.00;;;;;26.69;37.84;101068.69;4958419;28;45338;-42
2023/06/25 10:36:27;;;;;;;;;9.50;9.50;;;;;26.72;37.76;101068.44;4955689;28;45232;-44
2023/06/25 10:38:52;;;;;;;;;9.50;7.75;;;;;26.73;37.51;101072.78;4957917;28;45569;-43
2023/06/25 10:41:25;;;;;;;;;12.00;9.75;;;;;26.74;37.80;101076.28;4957608;28;45308;-44
2023/06/25 10:43:51;;;;;;;;;11.00;9.00;;;;;26.75;37.34;101072.66;4955098;28;45376;-43
2023/06/25 10:46:16;;;;;;;;;9.50;9.50;;;;;26.75;37.50;101062.03;4958084;28;51624;-42
2023/06/25 10:48:45;;;;;;;;;9.50;9.00;;;;;26.74;37.54;101061.16;4956553;28;61187;-42
2023/06/25 10:51:11;;;;;;;;;8.75;8.50;;;;;26.75;37.74;101046.06;4958106;28;45730;-41
2023/06/25 10:53:37;;;;;;;;;11.50;10.25;;;;;26.73;37.53;101042.69;4958477;28;45409;-43
2023/06/25 10:56:03;;;;;;;;;9.00;9.00;;;;;26.74;37.94;101047.88;4958520;28;45629;-41
2023/06/25 10:58:28;;;;;;;;;10.25;8.25;;;;;26.74;37.75;101050.53;4958201;28;45424;-44
2023/06/25 11:00:55;;;;;;;;;10.25;7.25;;;;;26.74;37.57;101042.56;4958412;28;45260;-43
2023/06/25 11:03:21;;;;;;;;;10.50;10.00;;;;;26.72;37.53;101039.19;4958045;28;45321;-43
2023/06/25 11:05:47;;;;;;;;;11.75;10.75;;;;;26.76;37.27;101047.78;4956965;28;45561;-41
2023/06/25 11:08:15;;;;;;;;;8.00;8.00;;;;;26.76;37.50;101037.97;4957828;28;46607;-44
2023/06/25 11:10:42;;;;;;;;;9.50;8.50;;;;;26.76;37.29;101037.97;4957981;28;45772;-41
2023/06/25 11:13:11;;;;;;;;;9.25;7.75;;;;;26.76;37.29;101048.59;4958125;28;45410;-42
2023/06/25 11:15:40;;;;;;;;;10.00;9.00;;;;;26.74;37.31;101031.91;4956889;28;45592;-40
2023/06/25 11:18:09;;;;;;;;;10.00;10.00;;;;;26.78;37.14;101041.38;4957853;28;46454;-42